createdAt,value
2019-05-22T00:02:10.212Z,13.13
2019-05-22T00:04:42.552Z,13.03
2019-05-22T00:07:13.548Z,15.68
2019-05-22T00:09:54.196Z,12.45
2019-05-22T00:12:26.951Z,12.18
2019-05-22T00:14:58.416Z,13.75
2019-05-22T00:17:31.448Z,13.20
2019-05-22T00:20:04.708Z,13.40
2019-05-22T00:22:48.490Z,13.08
2019-05-22T00:25:33.103Z,12.15
2019-05-22T00:28:04.208Z,12.37
2019-05-22T00:30:51.384Z,10.40
2019-05-22T00:33:20.433Z,10.95
2019-05-22T00:35:55.055Z,12.05
2019-05-22T00:38:26.249Z,12.30
2019-05-22T00:40:56.006Z,11.10
2019-05-22T00:43:31.650Z,11.65
2019-05-22T00:46:03.614Z,11.45
2019-05-22T00:48:35.029Z,10.35
2019-05-22T00:51:09.746Z,11.75
2019-05-22T00:53:42.228Z,11.28
2019-05-22T00:56:34.228Z,10.03
2019-05-22T00:59:23.002Z,11.33
2019-05-22T01:01:59.068Z,11.33
2019-05-22T01:04:41.180Z,12.45
2019-05-22T01:07:13.435Z,11.70
2019-05-22T01:09:51.703Z,10.28
2019-05-22T01:12:33.861Z,12.25
2019-05-22T01:15:12.614Z,10.30
2019-05-22T01:17:41.787Z,10.28
2019-05-22T01:20:14.582Z,10.85
2019-05-22T01:22:47.314Z,11.53
2019-05-22T01:25:20.487Z,11.70
2019-05-22T01:27:50.841Z,9.58
2019-05-22T01:30:39.310Z,10.20
2019-05-22T01:33:09.859Z,11.73
2019-05-22T01:35:48.601Z,9.03
2019-05-22T01:38:19.087Z,10.38
2019-05-22T01:40:51.077Z,9.03
2019-05-22T01:43:24.501Z,9.17
2019-05-22T01:45:55.895Z,8.50
2019-05-22T01:48:29.797Z,9.03
2019-05-22T01:51:02.908Z,9.35
2019-05-22T01:53:35.850Z,9.75
2019-05-22T01:56:08.289Z,10.80
2019-05-22T01:58:40.452Z,10.20
2019-05-22T02:01:12.211Z,10.85
2019-05-22T02:03:43.336Z,11.18
2019-05-22T02:06:13.398Z,13.00
2019-05-22T02:08:45.723Z,12.07
2019-05-22T02:11:16.388Z,11.77
2019-05-22T02:13:47.571Z,11.75
2019-05-22T02:16:18.013Z,12.58
2019-05-22T02:18:50.204Z,10.53
2019-05-22T02:21:23.023Z,12.47
2019-05-22T02:23:53.862Z,13.08
2019-05-22T02:26:24.844Z,12.80
2019-05-22T02:28:58.020Z,13.28
2019-05-22T02:31:30.667Z,12.67
2019-05-22T02:34:08.356Z,13.50
2019-05-22T02:36:39.908Z,14.58
2019-05-22T02:39:13.125Z,16.23
2019-05-22T02:41:47.461Z,13.45
2019-05-22T02:44:18.198Z,13.65
2019-05-22T02:46:48.910Z,13.90
2019-05-22T02:49:21.260Z,13.93
2019-05-22T02:51:53.734Z,14.13
2019-05-22T02:54:26.356Z,14.05
2019-05-22T02:56:57.897Z,14.38
2019-05-22T02:59:32.186Z,13.13
2019-05-22T03:02:04.261Z,14.50
2019-05-22T03:04:51.797Z,14.05
2019-05-22T03:07:22.756Z,13.83
2019-05-22T03:09:53.388Z,13.58
2019-05-22T03:12:27.699Z,16.48
2019-05-22T03:14:57.661Z,15.43
2019-05-22T03:17:29.471Z,16.55
2019-05-22T03:20:00.042Z,17.35
2019-05-22T03:22:39.384Z,15.70
2019-05-22T03:25:15.788Z,16.53
2019-05-22T03:27:47.537Z,16.70
2019-05-22T03:30:27.149Z,17.07
2019-05-22T03:32:58.852Z,15.60
2019-05-22T03:35:29.761Z,17.35
2019-05-22T03:38:03.083Z,18.02
2019-05-22T03:40:34.204Z,18.60
2019-05-22T03:43:21.715Z,17.47
2019-05-22T03:45:55.030Z,15.20
2019-05-22T03:48:25.284Z,17.33
2019-05-22T03:50:57.581Z,18.92
2019-05-22T03:53:34.953Z,16.62
2019-05-22T03:56:04.529Z,17.57
2019-05-22T03:58:35.389Z,16.40
2019-05-22T04:01:09.274Z,17.70
2019-05-22T04:03:39.959Z,16.70
2019-05-22T04:06:15.228Z,17.10
2019-05-22T04:08:46.264Z,15.85
2019-05-22T04:11:38.732Z,15.55
2019-05-22T04:14:09.239Z,15.32
2019-05-22T04:16:38.815Z,15.05
2019-05-22T04:19:08.373Z,15.50
2019-05-22T04:21:37.295Z,16.70
2019-05-22T04:24:16.235Z,14.83
2019-05-22T04:26:47.221Z,15.43
2019-05-22T04:29:16.152Z,15.50
2019-05-22T04:31:54.891Z,15.72
2019-05-22T04:34:26.575Z,16.75
2019-05-22T04:37:01.149Z,18.00
2019-05-22T04:39:33.073Z,15.72
2019-05-22T04:42:05.961Z,16.37
2019-05-22T04:44:38.285Z,15.90
2019-05-22T04:47:12.026Z,17.12
2019-05-22T04:49:43.097Z,15.98
2019-05-22T04:52:12.398Z,17.25
2019-05-22T04:54:45.762Z,15.38
2019-05-22T04:57:15.785Z,16.32
2019-05-22T04:59:48.319Z,16.50
2019-05-22T05:02:20.069Z,16.45
2019-05-22T05:04:51.279Z,17.45
2019-05-22T05:07:21.154Z,18.90
2019-05-22T05:09:50.435Z,18.17
2019-05-22T05:12:26.525Z,18.02
2019-05-22T05:14:56.376Z,17.52
2019-05-22T05:17:28.729Z,24.10
2019-05-22T05:19:59.041Z,18.48
2019-05-22T05:22:45.194Z,17.20
2019-05-22T05:25:18.374Z,16.40
2019-05-22T05:27:47.947Z,15.63
2019-05-22T05:30:38.880Z,16.17
2019-05-22T05:33:07.848Z,17.10
2019-05-22T05:35:45.538Z,16.67
2019-05-22T05:38:23.832Z,15.08
2019-05-22T05:40:53.856Z,17.82
2019-05-22T05:43:24.459Z,15.45
2019-05-22T05:49:01.624Z,16.23
2019-05-22T05:51:33.736Z,15.20
2019-05-22T05:57:29.907Z,16.97
2019-05-22T05:59:59.740Z,16.35
2019-05-22T06:02:29.379Z,16.75
2019-05-22T06:04:58.792Z,16.32
2019-05-22T06:07:28.344Z,14.03
2019-05-22T06:10:00.373Z,15.48
2019-05-22T06:12:31.436Z,15.53
2019-05-22T06:15:01.353Z,14.10
2019-05-22T06:17:50.515Z,16.12
2019-05-22T06:20:19.654Z,16.77
2019-05-22T06:22:50.180Z,17.12
2019-05-22T06:25:19.818Z,15.15
2019-05-22T06:27:51.490Z,14.70
2019-05-22T06:30:23.296Z,15.78
2019-05-22T06:33:13.580Z,16.90
2019-05-22T06:35:54.182Z,14.90
2019-05-22T06:38:41.448Z,16.12
2019-05-22T06:41:13.081Z,15.43
2019-05-22T06:43:46.480Z,15.18
2019-05-22T06:46:20.502Z,15.15
2019-05-22T06:48:51.509Z,15.97
2019-05-22T06:51:20.996Z,14.38
2019-05-22T06:53:53.690Z,13.57
2019-05-22T06:56:23.868Z,13.62
2019-05-22T06:58:56.699Z,13.30
2019-05-22T07:01:29.057Z,13.37
2019-05-22T07:03:58.614Z,13.20
2019-05-22T07:06:31.355Z,12.43
2019-05-22T07:08:58.952Z,12.65
2019-05-22T07:11:28.204Z,11.35
2019-05-22T07:13:57.743Z,11.83
2019-05-22T07:16:26.720Z,11.60
2019-05-22T07:19:01.901Z,10.95
2019-05-22T07:21:34.075Z,11.53
2019-05-22T07:24:02.897Z,11.03
2019-05-22T07:26:33.960Z,10.58
2019-05-22T07:29:05.829Z,10.30
2019-05-22T07:31:36.095Z,11.00
2019-05-22T07:34:05.377Z,9.48
2019-05-22T07:36:34.725Z,11.28
2019-05-22T07:39:07.303Z,10.63
2019-05-22T07:41:36.066Z,10.15
2019-05-22T07:44:06.657Z,10.40
2019-05-22T07:46:35.742Z,10.93
2019-05-22T07:49:07.087Z,11.53
2019-05-22T07:51:53.208Z,11.35
2019-05-22T07:54:12.739Z,11.15
2019-05-22T07:56:44.197Z,12.73
2019-05-22T07:59:13.778Z,10.63
2019-05-22T08:01:43.342Z,12.13
2019-05-22T08:04:15.909Z,11.97
2019-05-22T08:06:55.215Z,12.60
2019-05-22T08:09:24.269Z,10.95
2019-05-22T08:11:53.887Z,10.85
2019-05-22T08:14:24.551Z,11.30
2019-05-22T08:16:55.396Z,11.20
2019-05-22T08:19:35.498Z,12.73
2019-05-22T08:22:07.622Z,11.45
2019-05-22T08:24:37.704Z,11.48
2019-05-22T08:27:08.355Z,13.20
2019-05-22T08:29:37.491Z,11.83
2019-05-22T08:32:19.822Z,11.55
2019-05-22T08:34:49.827Z,12.98
2019-05-22T08:37:20.580Z,12.20
2019-05-22T08:40:10.327Z,12.60
2019-05-22T08:42:41.365Z,12.68
2019-05-22T08:45:11.783Z,13.28
2019-05-22T08:47:41.575Z,13.62
2019-05-22T08:50:10.882Z,11.85
2019-05-22T08:52:43.285Z,11.20
2019-05-22T08:55:16.149Z,10.30
2019-05-22T08:57:47.550Z,11.05
2019-05-22T09:00:22.509Z,10.82
2019-05-22T09:03:01.769Z,8.97
2019-05-22T09:05:32.694Z,12.70
2019-05-22T09:08:02.195Z,9.73
2019-05-22T09:10:33.044Z,9.83
2019-05-22T09:13:04.840Z,11.05
2019-05-22T09:15:36.631Z,9.80
2019-05-22T09:18:24.121Z,8.90
2019-05-22T09:20:56.134Z,9.87
2019-05-22T09:23:26.692Z,8.15
2019-05-22T09:29:00.076Z,8.00
2019-05-22T09:31:29.810Z,8.23
2019-05-22T09:36:54.062Z,9.18
2019-05-22T09:39:26.598Z,7.37
2019-05-22T09:42:07.678Z,8.53
2019-05-22T09:44:38.118Z,8.25
2019-05-22T09:47:08.571Z,7.15
2019-05-22T09:49:38.043Z,8.93
2019-05-22T09:52:09.846Z,9.63
2019-05-22T09:54:41.357Z,8.60
2019-05-22T09:57:24.033Z,10.60
2019-05-22T10:00:03.017Z,10.18
2019-05-22T10:02:33.167Z,8.28
2019-05-22T10:05:02.725Z,9.13
2019-05-22T10:07:37.514Z,9.43
2019-05-22T10:10:10.612Z,9.23
2019-05-22T10:12:51.337Z,8.15
2019-05-22T10:15:22.012Z,9.00
2019-05-22T10:17:52.226Z,9.13
2019-05-22T10:20:22.305Z,9.10
2019-05-22T10:22:52.125Z,9.23
2019-05-22T10:25:32.215Z,7.53
2019-05-22T10:28:01.209Z,8.03
2019-05-22T10:30:31.915Z,8.70
2019-05-22T10:33:01.441Z,8.30
2019-05-22T10:35:32.028Z,8.43
2019-05-22T10:38:04.485Z,8.60
2019-05-22T10:40:41.769Z,8.30
2019-05-22T10:43:13.673Z,9.00
2019-05-22T10:45:44.297Z,9.50
2019-05-22T10:48:13.240Z,9.95
2019-05-22T10:50:42.461Z,10.70
2019-05-22T10:53:41.831Z,10.63
2019-05-22T10:56:14.282Z,12.68
2019-05-22T10:58:44.478Z,9.78
2019-05-22T11:01:16.989Z,9.35
2019-05-22T11:03:57.750Z,9.57
2019-05-22T11:06:26.756Z,9.67
2019-05-22T11:08:55.482Z,8.33
2019-05-22T11:11:33.498Z,9.05
2019-05-22T11:14:21.509Z,9.40
2019-05-22T11:16:47.173Z,7.58
2019-05-22T11:19:20.571Z,9.00
2019-05-22T11:21:50.579Z,8.50
2019-05-22T11:24:21.025Z,8.48
2019-05-22T11:26:58.726Z,8.15
2019-05-22T11:29:28.295Z,7.30
2019-05-22T11:32:00.291Z,8.13
2019-05-22T11:34:29.295Z,7.10
2019-05-22T11:36:58.121Z,7.22
2019-05-22T11:39:38.498Z,6.83
2019-05-22T11:41:59.606Z,7.92
2019-05-22T11:44:41.086Z,5.58
2019-05-22T11:47:10.064Z,6.28
2019-05-22T11:49:39.851Z,8.55
2019-05-22T11:52:11.969Z,6.78
2019-05-22T11:54:49.384Z,6.25
2019-05-22T11:57:20.078Z,6.37
2019-05-22T11:59:55.032Z,6.90
2019-05-22T12:02:25.923Z,6.47
2019-05-22T12:04:55.196Z,8.10
2019-05-22T12:07:24.523Z,7.92
2019-05-22T12:09:54.721Z,6.83
2019-05-22T12:12:26.119Z,7.10
2019-05-22T12:14:55.495Z,7.70
2019-05-22T12:17:37.604Z,7.17
2019-05-22T12:19:55.249Z,7.60
2019-05-22T12:22:24.108Z,7.03
2019-05-22T12:24:57.164Z,6.20
2019-05-22T12:27:26.148Z,6.83
2019-05-22T12:29:56.841Z,7.35
2019-05-22T12:32:25.895Z,6.92
2019-05-22T12:34:55.653Z,6.42
2019-05-22T12:37:25.663Z,6.33
2019-05-22T12:39:56.260Z,7.33
2019-05-22T12:42:25.785Z,7.20
2019-05-22T12:44:54.843Z,6.10
2019-05-22T12:47:25.167Z,6.75
2019-05-22T12:49:55.643Z,8.18
2019-05-22T12:52:24.946Z,6.60
2019-05-22T12:54:54.381Z,6.53
2019-05-22T12:57:29.800Z,6.30
2019-05-22T13:00:02.268Z,7.12
2019-05-22T13:02:30.887Z,6.87
2019-05-22T13:05:04.843Z,6.50
2019-05-22T13:07:36.073Z,7.08
2019-05-22T13:10:09.889Z,8.05
2019-05-22T13:12:39.504Z,7.40
2019-05-22T13:15:10.874Z,7.62
2019-05-22T13:17:41.557Z,8.60
2019-05-22T13:20:12.862Z,7.20
2019-05-22T13:22:58.574Z,7.70
2019-05-22T13:25:34.158Z,7.90
2019-05-22T13:28:07.746Z,7.05
2019-05-22T13:30:40.166Z,7.83
2019-05-22T13:33:17.028Z,6.60
2019-05-22T13:35:45.776Z,6.78
2019-05-22T13:38:16.195Z,6.95
2019-05-22T13:40:48.410Z,6.20
2019-05-22T13:43:18.436Z,5.90
2019-05-22T13:45:47.629Z,7.15
2019-05-22T13:48:17.834Z,5.97
2019-05-22T13:50:51.009Z,7.22
2019-05-22T13:53:25.370Z,6.20
2019-05-22T13:55:56.496Z,7.83
2019-05-22T13:58:26.005Z,5.85
2019-05-22T14:00:56.863Z,5.30
2019-05-22T14:03:27.927Z,7.03
2019-05-22T14:06:06.172Z,6.60
2019-05-22T14:08:36.469Z,6.90
2019-05-22T14:11:07.242Z,6.00
2019-05-22T14:13:36.223Z,5.85
2019-05-22T14:16:08.119Z,6.53
2019-05-22T14:18:39.648Z,6.30
2019-05-22T14:21:14.335Z,6.47
2019-05-22T14:23:44.673Z,7.17
2019-05-22T14:26:14.413Z,5.50
2019-05-22T14:28:46.524Z,4.83
2019-05-22T14:31:39.059Z,5.33
2019-05-22T14:34:08.355Z,4.70
2019-05-22T14:36:43.429Z,5.72
2019-05-22T14:39:14.776Z,4.78
2019-05-22T14:41:44.715Z,4.75
2019-05-22T14:44:25.336Z,4.50
2019-05-22T14:47:12.214Z,5.65
2019-05-22T14:49:42.755Z,5.35
2019-05-22T14:52:12.340Z,4.45
2019-05-22T14:54:42.780Z,6.00
2019-05-22T14:57:12.974Z,3.72
2019-05-22T14:59:42.352Z,4.33
2019-05-22T15:02:11.956Z,4.00
2019-05-22T15:04:59.037Z,4.08
2019-05-22T15:07:46.535Z,3.72
2019-05-22T15:10:16.527Z,4.03
2019-05-22T15:12:43.062Z,3.70
2019-05-22T15:15:12.987Z,3.12
2019-05-22T15:17:41.830Z,3.10
2019-05-22T15:20:21.943Z,3.75
2019-05-22T15:23:08.371Z,4.70
2019-05-22T15:25:39.580Z,2.77
2019-05-22T15:28:12.027Z,3.00
2019-05-22T15:30:41.127Z,2.72
2019-05-22T15:33:10.194Z,2.73
2019-05-22T15:35:40.361Z,3.85
2019-05-22T15:38:35.437Z,3.47
2019-05-22T15:41:05.302Z,3.27
2019-05-22T15:43:39.472Z,3.60
2019-05-22T15:46:14.097Z,3.70
2019-05-22T15:48:46.492Z,2.80
2019-05-22T15:51:17.351Z,3.80
2019-05-22T15:53:48.466Z,2.90
2019-05-22T15:56:18.240Z,3.90
2019-05-22T15:58:49.308Z,2.72
2019-05-22T16:01:19.003Z,3.87
2019-05-22T16:03:52.114Z,4.75
2019-05-22T16:06:23.984Z,4.80
2019-05-22T16:08:53.751Z,4.70
2019-05-22T16:11:25.933Z,4.78
2019-05-22T16:13:57.972Z,5.42
2019-05-22T16:16:28.490Z,5.70
2019-05-22T16:18:59.622Z,4.78
2019-05-22T16:21:50.505Z,4.75
2019-05-22T16:24:19.376Z,4.70
2019-05-22T16:26:49.135Z,4.62
2019-05-22T16:29:18.586Z,4.72
2019-05-22T16:31:49.279Z,4.28
2019-05-22T16:34:19.056Z,4.22
2019-05-22T16:36:48.212Z,6.37
2019-05-22T16:39:18.850Z,4.90
2019-05-22T16:41:48.192Z,5.70
2019-05-22T16:44:18.317Z,5.50
2019-05-22T16:46:49.257Z,5.70
2019-05-22T16:49:20.027Z,7.30
2019-05-22T16:51:59.365Z,6.03
2019-05-22T16:54:33.240Z,5.25
2019-05-22T16:57:03.365Z,6.72
2019-05-22T16:59:37.046Z,6.17
2019-05-22T17:02:09.697Z,6.12
2019-05-22T17:04:56.898Z,5.87
2019-05-22T17:07:28.435Z,6.25
2019-05-22T17:10:01.079Z,6.03
2019-05-22T17:12:41.628Z,6.40
2019-05-22T17:15:23.088Z,5.85
2019-05-22T17:17:56.793Z,6.08
2019-05-22T17:20:28.191Z,6.03
2019-05-22T17:23:07.827Z,6.12
2019-05-22T17:25:40.212Z,5.50
2019-05-22T17:28:11.598Z,6.00
2019-05-22T17:30:41.799Z,5.67
2019-05-22T17:33:12.360Z,5.30
2019-05-22T17:35:42.962Z,6.95
2019-05-22T17:38:13.723Z,5.30
2019-05-22T17:40:44.254Z,5.83
2019-05-22T17:43:26.979Z,6.00
2019-05-22T17:45:59.243Z,5.53
2019-05-22T17:48:29.517Z,5.92
2019-05-22T17:51:06.708Z,5.72
2019-05-22T17:53:38.457Z,7.65
2019-05-22T17:56:10.717Z,5.47
2019-05-22T17:58:43.233Z,5.97
2019-05-22T18:01:14.628Z,5.20
2019-05-22T18:04:02.821Z,5.78
2019-05-22T18:06:35.654Z,5.40
2019-05-22T18:09:08.368Z,5.80
2019-05-22T18:11:41.717Z,4.85
2019-05-22T18:14:16.423Z,5.35
2019-05-22T18:16:48.108Z,5.25
2019-05-22T18:19:17.870Z,5.13
2019-05-22T18:21:57.699Z,5.37
2019-05-22T18:24:29.011Z,4.90
2019-05-22T18:26:59.318Z,5.43
2019-05-22T18:29:28.220Z,4.30
2019-05-22T18:31:58.538Z,4.92
2019-05-22T18:34:41.706Z,5.00
2019-05-22T18:37:15.929Z,5.83
2019-05-22T18:39:48.079Z,5.65
2019-05-22T18:42:18.783Z,4.30
2019-05-22T18:44:49.678Z,5.20
2019-05-22T18:47:28.912Z,4.47
2019-05-22T18:49:59.354Z,5.08
2019-05-22T18:52:40.364Z,4.10
2019-05-22T18:55:03.041Z,5.20
2019-05-22T18:57:34.530Z,3.92
2019-05-22T19:00:18.205Z,4.72
2019-05-22T19:02:46.283Z,5.03
2019-05-22T19:05:18.604Z,3.92
2019-05-22T19:07:51.051Z,4.40
2019-05-22T19:10:22.625Z,4.60
2019-05-22T19:12:55.054Z,5.25
2019-05-22T19:15:25.748Z,6.15
2019-05-22T19:18:01.798Z,4.85
2019-05-22T19:20:36.226Z,5.37
2019-05-22T19:23:12.605Z,4.97
2019-05-22T19:25:52.965Z,5.55
2019-05-22T19:28:22.964Z,5.83
2019-05-22T19:30:58.170Z,4.55
2019-05-22T19:33:35.788Z,4.75
2019-05-22T19:36:06.016Z,5.05
2019-05-22T19:38:35.704Z,5.87
2019-05-22T19:41:09.626Z,4.55
2019-05-22T19:43:40.823Z,4.58
2019-05-22T19:46:09.777Z,4.47
2019-05-22T19:48:43.251Z,5.03
2019-05-22T19:51:13.730Z,4.57
2019-05-22T19:53:47.581Z,5.13
2019-05-22T19:56:23.458Z,6.72
2019-05-22T19:58:53.297Z,6.03
2019-05-22T20:01:23.720Z,6.20
2019-05-22T20:03:55.049Z,7.17
2019-05-22T20:06:24.079Z,5.33
2019-05-22T20:08:54.019Z,5.37
2019-05-22T20:11:26.024Z,4.78
2019-05-22T20:13:57.023Z,5.10
2019-05-22T20:16:27.444Z,5.85
2019-05-22T20:18:59.927Z,5.17
2019-05-22T20:21:32.025Z,5.40
2019-05-22T20:24:03.990Z,5.67
2019-05-22T20:26:35.792Z,5.40
2019-05-22T20:29:07.004Z,5.85
2019-05-22T20:31:37.455Z,6.93
2019-05-22T20:34:07.834Z,5.92
2019-05-22T20:36:39.674Z,5.70
2019-05-22T20:39:10.134Z,5.35
2019-05-22T20:41:41.307Z,6.28
2019-05-22T20:44:11.874Z,6.58
2019-05-22T20:46:43.438Z,6.55
2019-05-22T20:49:12.954Z,5.03
2019-05-22T20:51:44.670Z,5.75
2019-05-22T20:54:17.398Z,5.67
2019-05-22T20:56:50.009Z,5.22
2019-05-22T20:59:23.242Z,5.47
2019-05-22T21:01:55.272Z,6.25
2019-05-22T21:04:26.903Z,4.90
2019-05-22T21:07:00.116Z,4.70
2019-05-22T21:09:30.374Z,5.70
2019-05-22T21:12:01.480Z,5.10
2019-05-22T21:14:36.530Z,5.87
2019-05-22T21:17:06.498Z,5.92
2019-05-22T21:19:37.622Z,5.53
2019-05-22T21:22:08.662Z,5.10
2019-05-22T21:24:39.422Z,6.85
2019-05-22T21:27:23.119Z,7.00
2019-05-22T21:29:53.717Z,5.53
2019-05-22T21:32:22.433Z,6.53
2019-05-22T21:34:53.638Z,5.40
2019-05-22T21:37:26.099Z,6.43
2019-05-22T21:39:55.959Z,6.47
2019-05-22T21:42:31.358Z,5.20
2019-05-22T21:45:02.979Z,6.42
2019-05-22T21:47:34.053Z,5.10
2019-05-22T21:50:04.987Z,5.08
2019-05-22T21:52:37.276Z,6.30
2019-05-22T21:55:08.309Z,7.45
2019-05-22T21:57:38.714Z,5.60
2019-05-22T22:00:25.741Z,8.93
2019-05-22T22:02:58.840Z,5.15
2019-05-22T22:05:32.507Z,5.25
2019-05-22T22:08:06.405Z,6.10
2019-05-22T22:10:36.809Z,4.97
2019-05-22T22:13:09.789Z,5.75
2019-05-22T22:15:47.798Z,4.60
2019-05-22T22:18:18.809Z,6.87
2019-05-22T22:20:56.898Z,5.62
2019-05-22T22:23:26.129Z,7.28
2019-05-22T22:25:58.597Z,7.12
2019-05-22T22:28:33.324Z,5.10
2019-05-22T22:31:05.668Z,6.83
2019-05-22T22:33:46.873Z,5.25
2019-05-22T22:36:21.148Z,6.70
2019-05-22T22:38:53.969Z,7.10
2019-05-22T22:41:28.299Z,5.80
2019-05-22T22:43:59.280Z,6.03
2019-05-22T22:46:50.665Z,7.42
2019-05-22T22:49:24.471Z,6.47
2019-05-22T22:51:56.577Z,6.10
2019-05-22T22:54:29.942Z,6.87
2019-05-22T22:57:00.324Z,5.85
2019-05-22T22:59:32.781Z,6.37
2019-05-22T23:02:05.656Z,6.47
2019-05-22T23:04:36.000Z,6.97
2019-05-22T23:07:05.905Z,6.85
2019-05-22T23:09:38.538Z,5.65
2019-05-22T23:12:10.092Z,7.37
2019-05-22T23:14:41.509Z,6.47
2019-05-22T23:17:13.192Z,8.28
2019-05-22T23:19:45.366Z,6.03
2019-05-22T23:22:16.402Z,4.97
2019-05-22T23:24:47.201Z,6.30
2019-05-22T23:27:18.701Z,5.72
2019-05-22T23:29:49.701Z,7.22
2019-05-22T23:32:24.897Z,7.10
2019-05-22T23:34:56.588Z,7.70
2019-05-22T23:37:28.415Z,5.78
2019-05-22T23:40:00.333Z,6.97
2019-05-22T23:42:31.998Z,5.72
2019-05-22T23:45:04.447Z,6.05
2019-05-22T23:47:33.812Z,5.30
2019-05-22T23:50:06.349Z,5.33
2019-05-22T23:52:37.337Z,7.17
2019-05-22T23:55:07.420Z,7.95
2019-05-22T23:57:38.910Z,6.15
